createdAt,value
2023-04-18T00:00:45.196Z,29.76
2023-04-18T00:04:45.580Z,29.74
2023-04-18T00:08:45.441Z,29.74
2023-04-18T00:12:45.591Z,29.70
2023-04-18T00:16:45.762Z,29.71
2023-04-18T00:20:45.849Z,29.68
2023-04-18T00:24:45.972Z,29.67
2023-04-18T00:28:46.064Z,29.72
2023-04-18T00:32:46.335Z,29.69
2023-04-18T00:36:46.408Z,29.71
2023-04-18T00:40:46.523Z,29.64
2023-04-18T00:44:46.679Z,29.64
2023-04-18T00:48:46.818Z,29.64
2023-04-18T00:52:46.984Z,29.62
2023-04-18T00:56:47.131Z,29.65
2023-04-18T01:00:47.362Z,29.61
2023-04-18T01:04:47.474Z,29.61
2023-04-18T01:08:47.658Z,29.61
2023-04-18T01:12:47.810Z,29.62
2023-04-18T01:16:48.052Z,29.61
2023-04-18T01:20:48.178Z,29.58
2023-04-18T01:24:48.377Z,29.59
2023-04-18T01:28:48.576Z,29.54
2023-04-18T01:32:48.807Z,29.62
2023-04-18T01:36:48.962Z,29.51
2023-04-18T01:40:49.166Z,29.54
2023-04-18T01:44:49.361Z,29.52
2023-04-18T01:48:49.744Z,29.52
2023-04-18T01:52:49.761Z,29.53
2023-04-18T01:56:50.001Z,29.53
2023-04-18T02:00:50.205Z,29.51
2023-04-18T02:04:50.425Z,29.48
2023-04-18T02:12:50.832Z,29.50
2023-04-18T02:16:51.099Z,29.49
2023-04-18T02:20:51.193Z,29.46
2023-04-18T02:24:51.430Z,29.45
2023-04-18T02:28:51.626Z,29.45
2023-04-18T02:32:51.948Z,29.44
2023-04-18T02:36:52.072Z,29.44
2023-04-18T02:40:52.043Z,29.39
2023-04-18T02:44:51.974Z,29.38
2023-04-18T02:48:52.008Z,29.39
2023-04-18T02:52:51.928Z,29.39
2023-04-18T02:56:51.913Z,29.39
2023-04-18T03:00:51.858Z,29.41
2023-04-18T03:04:51.860Z,29.33
2023-04-18T03:08:51.806Z,29.39
2023-04-18T03:12:51.739Z,29.35
2023-04-18T03:16:53.083Z,29.34
2023-04-18T03:20:51.799Z,29.33
2023-04-18T03:24:51.740Z,29.35
2023-04-18T03:28:51.723Z,29.31
2023-04-18T03:32:51.711Z,29.27
2023-04-18T03:36:51.649Z,29.30
2023-04-18T03:40:51.608Z,29.26
2023-04-18T03:44:51.558Z,29.30
2023-04-18T03:48:51.589Z,29.24
2023-04-18T03:52:51.790Z,29.24
2023-04-18T03:56:51.947Z,29.26
2023-04-18T04:00:52.101Z,29.22
2023-04-18T04:04:52.319Z,29.23
2023-04-18T04:08:52.474Z,29.22
2023-04-18T04:12:52.636Z,29.15
2023-04-18T04:16:52.938Z,29.16
2023-04-18T04:20:52.927Z,29.14
2023-04-18T04:24:53.110Z,29.14
2023-04-18T04:28:53.279Z,29.15
2023-04-18T04:32:53.469Z,29.12
2023-04-18T04:36:53.593Z,29.12
2023-04-18T04:40:53.735Z,29.08
2023-04-18T04:44:53.891Z,29.08
2023-04-18T04:48:53.978Z,29.07
2023-04-18T04:52:54.039Z,29.05
2023-04-18T04:56:54.099Z,29.07
2023-04-18T05:00:54.209Z,29.03
2023-04-18T05:04:54.192Z,29.00
2023-04-18T05:08:54.210Z,29.03
2023-04-18T05:12:54.399Z,28.92
2023-04-18T05:16:54.513Z,28.73
2023-04-18T05:20:54.305Z,28.56
2023-04-18T05:24:54.309Z,28.38
2023-04-18T05:28:54.256Z,28.18
2023-04-18T05:32:54.217Z,28.03
2023-04-18T05:36:54.172Z,27.98
2023-04-18T05:40:54.152Z,27.94
2023-04-18T05:44:54.110Z,27.92
2023-04-18T05:48:54.082Z,27.83
2023-04-18T05:52:54.756Z,27.86
2023-04-18T05:56:54.026Z,27.86
2023-04-18T06:00:53.980Z,27.87
2023-04-18T06:04:54.242Z,27.80
2023-04-18T06:08:53.925Z,27.78
2023-04-18T06:12:53.859Z,27.76
2023-04-18T06:16:53.977Z,27.73
2023-04-18T06:20:54.346Z,27.74
2023-04-18T06:24:54.391Z,27.70
2023-04-18T06:28:54.642Z,27.67
2023-04-18T06:32:54.850Z,27.65
2023-04-18T06:36:54.982Z,27.67
2023-04-18T06:40:55.172Z,27.68
2023-04-18T06:44:55.316Z,27.63
2023-04-18T06:48:55.470Z,27.63
2023-04-18T06:52:55.651Z,27.64
2023-04-18T06:56:55.719Z,27.60
2023-04-18T07:00:55.916Z,27.60
2023-04-18T07:04:55.952Z,27.59
2023-04-18T07:08:56.113Z,27.55
2023-04-18T07:12:56.250Z,27.49
2023-04-18T07:16:56.347Z,27.48
2023-04-18T07:20:56.451Z,27.50
2023-04-18T07:24:56.700Z,27.40
2023-04-18T07:28:56.702Z,27.44
2023-04-18T07:32:56.859Z,27.42
2023-04-18T07:36:56.944Z,27.34
2023-04-18T07:40:57.071Z,27.33
2023-04-18T07:44:57.162Z,27.31
2023-04-18T07:48:57.271Z,27.23
2023-04-18T07:52:57.427Z,27.58
2023-04-18T07:56:57.437Z,28.23
2023-04-18T08:00:57.606Z,28.72
2023-04-18T08:04:58.016Z,29.28
2023-04-18T08:08:57.909Z,29.71
2023-04-18T08:12:57.946Z,29.80
2023-04-18T08:16:57.928Z,30.15
2023-04-18T08:20:58.033Z,30.33
2023-04-18T08:25:04.481Z,30.20
2023-04-18T08:28:59.208Z,30.09
2023-04-18T08:32:58.189Z,30.40
2023-04-18T08:36:58.149Z,30.61
2023-04-18T08:40:58.094Z,30.86
2023-04-18T08:44:58.374Z,30.72
2023-04-18T08:48:58.128Z,30.95
2023-04-18T08:52:58.186Z,31.75
2023-04-18T08:56:58.268Z,31.97
2023-04-18T09:00:58.498Z,27.28
2023-04-18T09:04:58.460Z,27.99
2023-04-18T09:08:58.448Z,27.64
2023-04-18T09:12:58.458Z,29.00
2023-04-18T09:16:58.886Z,28.36
2023-04-18T09:20:58.469Z,28.50
2023-04-18T09:24:58.521Z,27.87
2023-04-18T09:28:58.434Z,27.78
2023-04-18T09:32:59.368Z,27.56
2023-04-18T09:36:58.520Z,27.62
2023-04-18T09:40:58.455Z,27.91
2023-04-18T09:44:58.466Z,28.43
2023-04-18T09:48:58.469Z,28.28
2023-04-18T09:52:58.547Z,29.76
2023-04-18T09:56:58.523Z,28.90
2023-04-18T10:00:58.619Z,29.79
2023-04-18T10:04:58.916Z,28.66
2023-04-18T10:08:58.923Z,30.12
2023-04-18T10:12:58.931Z,30.48
2023-04-18T10:16:59.058Z,30.65
2023-04-18T10:20:59.005Z,31.09
2023-04-18T10:24:59.006Z,31.44
2023-04-18T10:28:58.976Z,31.77
2023-04-18T10:32:58.934Z,31.74
2023-04-18T10:36:58.889Z,31.65
2023-04-18T10:40:58.833Z,31.84
2023-04-18T10:44:58.985Z,30.50
2023-04-18T10:48:58.800Z,31.16
2023-04-18T10:52:58.909Z,31.95
2023-04-18T10:56:58.713Z,31.83
2023-04-18T11:00:58.680Z,32.18
2023-04-18T11:04:58.637Z,32.83
2023-04-18T11:08:58.595Z,33.44
2023-04-18T11:12:58.564Z,34.25
2023-04-18T11:16:58.666Z,34.39
2023-04-18T11:20:58.492Z,34.01
2023-04-18T11:24:58.466Z,35.24
2023-04-18T11:28:58.434Z,35.29
2023-04-18T11:32:58.488Z,36.02
2023-04-18T11:36:58.629Z,36.92
2023-04-18T11:40:58.840Z,32.36
2023-04-18T11:44:58.822Z,27.94
2023-04-18T11:48:58.909Z,28.26
2023-04-18T11:52:58.926Z,29.04
2023-04-18T11:56:58.919Z,28.98
2023-04-18T12:00:58.924Z,28.59
2023-04-18T12:04:59.317Z,28.26
2023-04-18T12:08:58.937Z,28.48
2023-04-18T12:12:59.054Z,28.06
2023-04-18T12:16:59.005Z,28.32
2023-04-18T12:20:59.019Z,28.51
2023-04-18T12:25:06.398Z,27.55
2023-04-18T12:28:59.008Z,27.52
2023-04-18T12:32:59.021Z,27.82
2023-04-18T12:36:58.972Z,27.81
2023-04-18T12:40:58.915Z,27.72
2023-04-18T12:44:58.912Z,27.52
2023-04-18T12:48:58.836Z,27.94
2023-04-18T12:52:59.068Z,27.84
2023-04-18T12:56:59.285Z,27.54
2023-04-18T13:01:06.319Z,28.03
2023-04-18T13:04:59.238Z,27.85
2023-04-18T13:08:59.154Z,27.90
2023-04-18T13:12:59.190Z,27.77
2023-04-18T13:16:59.093Z,27.38
2023-04-18T13:20:59.096Z,27.43
2023-04-18T13:24:59.139Z,27.54
2023-04-18T13:28:59.101Z,27.60
2023-04-18T13:32:59.135Z,27.62
2023-04-18T13:36:59.194Z,27.65
2023-04-18T13:41:11.454Z,27.69
2023-04-18T13:46:18.832Z,28.13
2023-04-18T13:47:18.766Z,27.76
2023-04-18T13:48:18.702Z,27.62
2023-04-18T13:49:18.705Z,27.44
2023-04-18T13:50:18.667Z,27.27
2023-04-18T13:51:18.760Z,27.30
2023-04-18T13:52:18.696Z,27.25
2023-04-18T13:53:18.662Z,27.15
2023-04-18T13:54:18.686Z,27.03
2023-04-18T13:55:18.684Z,27.03
2023-04-18T13:56:18.628Z,26.94
2023-04-18T13:57:18.669Z,26.93
2023-04-18T13:58:18.641Z,26.91
2023-04-18T13:59:18.635Z,26.98
2023-04-18T14:00:18.653Z,26.94
2023-04-18T14:01:18.631Z,26.76
2023-04-18T14:02:18.686Z,26.87
2023-04-18T14:03:18.776Z,26.86
2023-04-18T14:04:18.771Z,26.64
2023-04-18T14:05:18.572Z,26.66
2023-04-18T14:06:18.578Z,26.75
2023-04-18T14:07:18.588Z,26.69
2023-04-18T14:08:18.617Z,26.65
2023-04-18T14:09:18.577Z,26.68
2023-04-18T14:10:18.576Z,26.71
2023-04-18T14:11:18.538Z,26.80
2023-04-18T14:12:18.558Z,26.71
2023-04-18T14:13:18.527Z,26.78
2023-04-18T14:14:18.529Z,26.68
2023-04-18T14:15:18.508Z,26.65
2023-04-18T14:16:18.527Z,26.63
2023-04-18T14:17:18.488Z,26.46
2023-04-18T14:18:18.536Z,26.87
2023-04-18T14:19:18.474Z,26.43
2023-04-18T14:20:18.499Z,26.90
2023-04-18T14:21:18.470Z,26.87
2023-04-18T14:22:18.455Z,26.87
2023-04-18T14:23:18.466Z,26.91
2023-04-18T14:24:18.471Z,26.99
2023-04-18T14:25:18.433Z,26.69
2023-04-18T14:26:18.418Z,27.12
2023-04-18T14:27:18.449Z,26.90
2023-04-18T14:28:18.416Z,27.08
2023-04-18T14:29:18.437Z,27.01
2023-04-18T14:30:18.401Z,27.18
2023-04-18T14:31:18.456Z,27.12
2023-04-18T14:32:18.417Z,27.04
2023-04-18T14:33:18.405Z,27.10
2023-04-18T14:34:18.409Z,27.19
2023-04-18T14:35:18.385Z,27.45
2023-04-18T14:36:18.462Z,27.26
2023-04-18T14:37:18.402Z,27.34
2023-04-18T14:38:18.402Z,27.39
2023-04-18T14:39:18.438Z,27.22
2023-04-18T14:40:18.501Z,27.28
2023-04-18T14:41:19.401Z,27.01
2023-04-18T14:42:18.643Z,27.09
2023-04-18T14:43:18.654Z,27.32
2023-04-18T14:44:18.727Z,27.17
2023-04-18T14:45:18.811Z,27.17
2023-04-18T14:46:18.927Z,27.25
2023-04-18T14:47:18.897Z,27.33
2023-04-18T14:48:19.006Z,27.22
2023-04-18T14:49:18.977Z,27.17
2023-04-18T14:50:19.053Z,27.28
2023-04-18T14:51:19.105Z,27.11
2023-04-18T14:52:19.174Z,27.20
2023-04-18T14:53:19.204Z,27.17
2023-04-18T14:54:26.257Z,27.01
2023-04-18T14:55:19.209Z,26.96
2023-04-18T14:56:19.234Z,26.89
2023-04-18T14:57:19.212Z,26.91
2023-04-18T14:58:19.216Z,26.89
2023-04-18T14:59:19.406Z,26.79
2023-04-18T15:00:19.234Z,26.74
2023-04-18T15:01:19.214Z,26.58
2023-04-18T15:02:19.217Z,26.67
2023-04-18T15:03:19.365Z,26.70
2023-04-18T15:04:26.506Z,26.56
2023-04-18T15:05:19.155Z,26.57
2023-04-18T15:06:19.140Z,26.51
2023-04-18T15:07:19.156Z,26.55
2023-04-18T15:08:19.176Z,26.39
2023-04-18T15:09:19.113Z,26.96
2023-04-18T15:10:19.147Z,27.16
2023-04-18T15:11:19.137Z,27.28
2023-04-18T15:12:19.122Z,27.47
2023-04-18T15:13:19.122Z,27.56
2023-04-18T15:14:19.135Z,27.79
2023-04-18T15:15:26.150Z,27.98
2023-04-18T15:16:19.131Z,28.05
2023-04-18T15:17:19.074Z,28.18
2023-04-18T15:18:19.086Z,28.25
2023-04-18T15:19:19.086Z,28.34
2023-04-18T15:20:19.056Z,28.42
2023-04-18T15:21:19.049Z,28.44
2023-04-18T15:22:19.039Z,28.60
2023-04-18T15:23:19.034Z,28.68
2023-04-18T15:24:19.051Z,28.71
2023-04-18T15:25:19.036Z,28.79
2023-04-18T15:26:19.077Z,28.83
2023-04-18T15:27:19.004Z,28.99
2023-04-18T15:28:19.012Z,29.01
2023-04-18T15:29:19.034Z,29.01
2023-04-18T15:30:19.037Z,29.09
2023-04-18T15:31:19.084Z,29.15
2023-04-18T15:32:19.044Z,29.23
2023-04-18T15:33:19.019Z,29.28
2023-04-18T15:34:19.003Z,29.73
2023-04-18T15:35:18.979Z,29.66
2023-04-18T15:36:18.969Z,29.56
2023-04-18T15:37:18.982Z,29.60
2023-04-18T15:38:18.967Z,29.59
2023-04-18T15:39:18.931Z,29.64
2023-04-18T15:40:18.959Z,29.64
2023-04-18T15:41:18.944Z,29.58
2023-04-18T15:42:18.960Z,29.69
2023-04-18T15:43:18.927Z,29.69
2023-04-18T15:44:18.926Z,29.74
2023-04-18T15:45:18.881Z,29.78
2023-04-18T15:46:18.920Z,29.94
2023-04-18T15:47:18.897Z,29.98
2023-04-18T15:48:18.897Z,29.99
2023-04-18T15:49:18.880Z,29.99
2023-04-18T15:50:18.893Z,30.17
2023-04-18T15:51:18.879Z,30.09
2023-04-18T15:52:18.848Z,30.09
2023-04-18T15:53:18.889Z,30.25
2023-04-18T15:54:18.862Z,30.21
2023-04-18T15:55:18.845Z,30.23
2023-04-18T15:56:18.838Z,30.23
2023-04-18T15:57:18.849Z,30.29
2023-04-18T15:58:18.811Z,30.12
2023-04-18T15:59:18.813Z,30.03
2023-04-18T16:00:18.818Z,30.01
2023-04-18T16:01:18.826Z,29.91
2023-04-18T16:02:18.870Z,29.87
2023-04-18T16:03:18.891Z,29.82
2023-04-18T16:04:18.846Z,29.81
2023-04-18T16:05:18.812Z,29.77
2023-04-18T16:06:18.827Z,29.78
2023-04-18T16:07:18.887Z,29.87
2023-04-18T16:08:18.915Z,29.88
2023-04-18T16:09:18.931Z,29.89
2023-04-18T16:10:18.937Z,29.94
2023-04-18T16:11:18.981Z,29.98
2023-04-18T16:12:19.105Z,29.94
2023-04-18T16:13:19.059Z,29.96
2023-04-18T16:14:19.096Z,29.94
2023-04-18T16:15:19.099Z,29.91
2023-04-18T16:16:19.230Z,29.96
2023-04-18T16:17:19.138Z,29.97
2023-04-18T16:18:19.258Z,30.04
2023-04-18T16:19:19.497Z,30.04
2023-04-18T16:20:19.223Z,30.10
2023-04-18T16:21:19.242Z,30.10
2023-04-18T16:22:19.281Z,30.13
2023-04-18T16:23:19.299Z,30.15
2023-04-18T16:24:19.322Z,30.13
2023-04-18T16:25:19.335Z,30.31
2023-04-18T16:26:19.365Z,30.27
2023-04-18T16:27:19.434Z,30.18
2023-04-18T16:28:19.460Z,30.10
2023-04-18T16:29:19.469Z,30.03
2023-04-18T16:30:19.460Z,30.02
2023-04-18T16:31:19.611Z,30.10
2023-04-18T16:32:19.558Z,30.18
2023-04-18T16:33:19.655Z,30.23
2023-04-18T16:34:19.586Z,30.22
2023-04-18T16:35:19.644Z,30.37
2023-04-18T16:36:19.634Z,30.35
2023-04-18T16:37:19.674Z,30.30
2023-04-18T16:38:19.704Z,30.31
2023-04-18T16:39:19.733Z,30.34
2023-04-18T16:40:19.748Z,30.38
2023-04-18T16:41:19.786Z,30.38
2023-04-18T16:42:19.815Z,30.43
2023-04-18T16:43:19.842Z,30.45
2023-04-18T16:44:19.845Z,30.44
2023-04-18T16:45:19.898Z,30.48
2023-04-18T16:46:19.994Z,30.43
2023-04-18T16:47:19.973Z,30.57
2023-04-18T16:48:19.985Z,30.42
2023-04-18T16:49:20.036Z,30.42
2023-04-18T16:50:20.049Z,30.37
2023-04-18T16:51:20.090Z,30.36
2023-04-18T16:52:20.106Z,30.35
2023-04-18T16:53:20.143Z,30.29
2023-04-18T16:54:20.197Z,30.31
2023-04-18T16:55:20.212Z,30.35
2023-04-18T16:56:20.243Z,30.28
2023-04-18T16:57:20.290Z,30.26
2023-04-18T16:58:20.309Z,30.21
2023-04-18T16:59:20.317Z,30.22
2023-04-18T17:00:20.424Z,30.17
2023-04-18T17:01:20.400Z,30.20
2023-04-18T17:02:20.570Z,30.13
2023-04-18T17:03:20.615Z,30.17
2023-04-18T17:04:20.580Z,30.15
2023-04-18T17:05:20.541Z,30.14
2023-04-18T17:06:20.585Z,30.13
2023-04-18T17:07:20.626Z,30.09
2023-04-18T17:08:20.668Z,30.07
2023-04-18T17:09:20.714Z,30.08
2023-04-18T17:10:20.771Z,30.07
2023-04-18T17:11:20.811Z,30.07
2023-04-18T17:12:20.876Z,30.08
2023-04-18T17:13:20.899Z,30.06
2023-04-18T17:14:20.980Z,30.06
2023-04-18T17:15:20.983Z,29.96
2023-04-18T17:16:21.124Z,29.99
2023-04-18T17:17:21.129Z,30.04
2023-04-18T17:18:21.187Z,30.01
2023-04-18T17:19:21.251Z,30.04
2023-04-18T17:20:21.277Z,29.97
2023-04-18T17:21:21.340Z,29.99
2023-04-18T17:22:21.379Z,29.95
2023-04-18T17:23:21.460Z,29.98
2023-04-18T17:24:21.516Z,29.99
2023-04-18T17:25:21.593Z,29.91
2023-04-18T17:26:21.624Z,29.87
2023-04-18T17:27:21.710Z,29.89
2023-04-18T17:28:21.772Z,29.87
2023-04-18T17:29:22.354Z,29.88
2023-04-18T17:30:21.908Z,29.88
2023-04-18T17:31:22.004Z,29.89
2023-04-18T17:32:22.062Z,29.93
2023-04-18T17:33:22.067Z,29.89
2023-04-18T17:34:22.151Z,29.89
2023-04-18T17:35:22.188Z,29.88
2023-04-18T17:36:22.304Z,29.89
2023-04-18T17:37:22.394Z,29.86
2023-04-18T17:38:22.376Z,29.89
2023-04-18T17:39:22.484Z,29.83
2023-04-18T17:40:22.514Z,29.80
2023-04-18T17:41:22.599Z,29.81
2023-04-18T17:42:22.588Z,29.88
2023-04-18T17:43:22.653Z,29.83
2023-04-18T17:44:22.686Z,29.83
2023-04-18T17:45:22.761Z,29.84
2023-04-18T17:46:22.806Z,29.80
2023-04-18T17:47:22.903Z,29.86
2023-04-18T17:48:22.891Z,29.79
2023-04-18T17:49:22.924Z,29.80
2023-04-18T17:50:22.917Z,29.81
2023-04-18T17:51:22.919Z,29.81
2023-04-18T17:52:22.976Z,29.80
2023-04-18T17:53:23.030Z,29.77
2023-04-18T17:54:23.036Z,29.81
2023-04-18T17:55:23.027Z,29.81
2023-04-18T17:56:23.062Z,29.79
2023-04-18T17:57:23.064Z,29.83
2023-04-18T17:58:23.054Z,29.77
2023-04-18T17:59:23.029Z,29.79
2023-04-18T18:00:23.090Z,29.79
2023-04-18T18:01:23.121Z,29.82
2023-04-18T18:02:23.167Z,29.78
2023-04-18T18:03:23.302Z,29.79
2023-04-18T18:04:25.780Z,29.77
2023-04-18T18:05:23.051Z,29.76
2023-04-18T18:06:23.073Z,29.79
2023-04-18T18:07:23.061Z,29.75
2023-04-18T18:08:23.042Z,29.75
2023-04-18T18:09:23.039Z,29.71
2023-04-18T18:10:23.017Z,29.75
2023-04-18T18:11:23.016Z,29.76
2023-04-18T18:12:23.031Z,29.73
2023-04-18T18:13:23.033Z,29.73
2023-04-18T18:14:23.021Z,29.74
2023-04-18T18:15:23.000Z,29.70
2023-04-18T18:16:23.027Z,29.78
2023-04-18T18:17:23.006Z,29.76
2023-04-18T18:18:22.999Z,29.75
2023-04-18T18:19:22.996Z,29.71
2023-04-18T18:20:23.042Z,29.75
2023-04-18T18:21:22.959Z,29.70
2023-04-18T18:22:22.950Z,29.71
2023-04-18T18:23:22.961Z,29.70
2023-04-18T18:24:22.933Z,29.75
2023-04-18T18:25:22.959Z,29.69
2023-04-18T18:26:22.914Z,29.69
2023-04-18T18:27:22.925Z,29.67
2023-04-18T18:28:22.940Z,30.04
2023-04-18T18:29:22.915Z,30.00
2023-04-18T18:30:22.923Z,30.00
2023-04-18T18:31:22.922Z,30.12
2023-04-18T18:32:22.933Z,30.18
2023-04-18T18:33:22.902Z,30.23
2023-04-18T18:34:22.865Z,30.22
2023-04-18T18:35:22.896Z,30.24
2023-04-18T18:36:22.901Z,30.24
2023-04-18T18:37:22.843Z,30.30
2023-04-18T18:38:22.859Z,30.33
2023-04-18T18:39:22.857Z,30.35
2023-04-18T18:40:22.842Z,30.45
2023-04-18T18:41:22.879Z,30.56
2023-04-18T18:42:22.823Z,30.53
2023-04-18T18:43:22.844Z,30.70
2023-04-18T18:44:22.947Z,30.65
2023-04-18T18:45:22.778Z,30.76
2023-04-18T18:46:22.875Z,30.86
2023-04-18T18:47:22.791Z,30.89
2023-04-18T18:48:22.788Z,30.89
2023-04-18T18:49:22.771Z,30.94
2023-04-18T18:50:22.773Z,30.97
2023-04-18T18:51:22.751Z,31.30
2023-04-18T18:52:22.888Z,30.95
2023-04-18T18:53:22.748Z,30.95
2023-04-18T18:54:22.757Z,30.94
2023-04-18T18:55:22.771Z,30.92
2023-04-18T18:56:22.757Z,30.85
2023-04-18T18:57:22.709Z,30.88
2023-04-18T18:58:22.727Z,30.85
2023-04-18T18:59:22.714Z,30.80
2023-04-18T19:00:22.723Z,30.86
2023-04-18T19:01:22.734Z,30.87
2023-04-18T19:02:22.940Z,31.16
2023-04-18T19:03:22.827Z,31.04
2023-04-18T19:04:22.809Z,30.98
2023-04-18T19:05:22.697Z,30.75
2023-04-18T19:06:22.704Z,30.61
2023-04-18T19:07:22.671Z,30.65
2023-04-18T19:08:22.673Z,30.58
2023-04-18T19:09:22.669Z,30.51
2023-04-18T19:10:22.713Z,30.45
2023-04-18T19:11:22.775Z,30.45
2023-04-18T19:12:22.827Z,30.38
2023-04-18T19:13:22.872Z,30.37
2023-04-18T19:14:22.955Z,30.35
2023-04-18T19:15:22.979Z,30.33
2023-04-18T19:16:23.061Z,30.24
2023-04-18T19:17:23.100Z,30.29
2023-04-18T19:18:23.558Z,30.24
2023-04-18T19:19:23.155Z,30.21
2023-04-18T19:20:23.236Z,30.20
2023-04-18T19:21:23.259Z,30.16
2023-04-18T19:22:23.360Z,30.17
2023-04-18T19:23:23.418Z,30.17
2023-04-18T19:24:23.448Z,30.16
2023-04-18T19:25:23.513Z,30.16
2023-04-18T19:26:23.583Z,30.11
2023-04-18T19:27:23.657Z,30.10
2023-04-18T19:28:23.735Z,30.13
2023-04-18T19:29:23.773Z,30.10
2023-04-18T19:30:23.834Z,30.08
2023-04-18T19:31:23.967Z,30.07
2023-04-18T19:32:24.040Z,30.06
2023-04-18T19:33:24.030Z,30.10
2023-04-18T19:34:24.077Z,30.06
2023-04-18T19:35:24.256Z,30.09
2023-04-18T19:36:24.250Z,30.04
2023-04-18T19:37:24.279Z,30.06
2023-04-18T19:38:24.299Z,30.06
2023-04-18T19:39:24.344Z,30.04
2023-04-18T19:40:24.498Z,30.04
2023-04-18T19:41:24.500Z,30.04
2023-04-18T19:42:24.545Z,30.03
2023-04-18T19:43:24.578Z,30.02
2023-04-18T19:44:24.652Z,30.02
2023-04-18T19:45:24.665Z,30.02
2023-04-18T19:46:24.793Z,30.02
2023-04-18T19:47:24.802Z,30.02
2023-04-18T19:48:24.872Z,30.03
2023-04-18T19:49:24.900Z,30.04
2023-04-18T19:50:24.968Z,30.04
2023-04-18T19:51:25.049Z,30.04
2023-04-18T19:52:25.065Z,30.03
2023-04-18T19:53:25.085Z,30.02
2023-04-18T19:54:25.148Z,30.08
2023-04-18T19:55:25.200Z,30.02
2023-04-18T19:56:25.215Z,30.06
2023-04-18T19:57:25.284Z,30.04
2023-04-18T19:58:25.329Z,30.06
2023-04-18T19:59:25.359Z,30.01
2023-04-18T20:00:25.370Z,29.99
2023-04-18T20:01:25.401Z,30.01
2023-04-18T20:02:25.491Z,29.99
2023-04-18T20:03:25.583Z,30.02
2023-04-18T20:04:25.678Z,29.99
2023-04-18T20:05:25.539Z,29.97
2023-04-18T20:06:25.535Z,29.99
2023-04-18T20:07:26.311Z,29.98
2023-04-18T20:08:25.655Z,29.96
2023-04-18T20:09:25.694Z,29.96
2023-04-18T20:10:25.749Z,29.95
2023-04-18T20:11:25.768Z,29.89
2023-04-18T20:12:25.824Z,29.89
2023-04-18T20:13:25.887Z,29.91
2023-04-18T20:14:25.895Z,29.88
2023-04-18T20:15:25.944Z,29.89
2023-04-18T20:16:25.969Z,29.85
2023-04-18T20:17:26.040Z,29.86
2023-04-18T20:18:26.004Z,29.83
2023-04-18T20:19:26.013Z,29.85
2023-04-18T20:20:26.048Z,29.80
2023-04-18T20:21:26.085Z,29.84
2023-04-18T20:22:26.080Z,29.82
2023-04-18T20:23:26.104Z,29.81
2023-04-18T20:24:26.095Z,29.81
2023-04-18T20:25:26.155Z,29.81
2023-04-18T20:26:26.158Z,29.82
2023-04-18T20:27:26.179Z,29.86
2023-04-18T20:28:26.222Z,29.87
2023-04-18T20:29:26.234Z,29.82
2023-04-18T20:30:26.302Z,29.86
2023-04-18T20:31:26.212Z,29.82
2023-04-18T20:32:26.238Z,29.81
2023-04-18T20:33:26.277Z,29.83
2023-04-18T20:34:26.239Z,29.81
2023-04-18T20:35:26.277Z,29.78
2023-04-18T20:36:26.240Z,29.78
2023-04-18T20:37:26.295Z,29.80
2023-04-18T20:38:26.401Z,29.77
2023-04-18T20:39:26.314Z,29.77
2023-04-18T20:40:26.310Z,29.78
2023-04-18T20:41:26.322Z,29.74
2023-04-18T20:42:26.336Z,29.82
2023-04-18T20:43:26.337Z,29.78
2023-04-18T20:44:26.375Z,29.76
2023-04-18T20:45:26.351Z,29.75
2023-04-18T20:46:26.377Z,29.76
2023-04-18T20:47:26.366Z,29.78
2023-04-18T20:48:26.318Z,29.76
2023-04-18T20:49:26.378Z,29.74
2023-04-18T20:50:26.303Z,29.74
2023-04-18T20:51:26.331Z,29.70
2023-04-18T20:52:26.327Z,29.72
2023-04-18T20:53:26.316Z,29.74
2023-04-18T20:54:26.627Z,29.76
2023-04-18T20:55:26.318Z,29.79
2023-04-18T20:56:26.311Z,29.74
2023-04-18T20:57:26.293Z,29.74
2023-04-18T20:58:26.298Z,29.75
2023-04-18T20:59:26.324Z,29.76
2023-04-18T21:00:26.288Z,29.74
2023-04-18T21:01:26.354Z,29.78
2023-04-18T21:02:26.462Z,29.70
2023-04-18T21:03:26.402Z,29.71
2023-04-18T21:04:26.405Z,29.75
2023-04-18T21:05:26.340Z,29.68
2023-04-18T21:06:26.346Z,29.71
2023-04-18T21:07:26.347Z,29.67
2023-04-18T21:08:26.344Z,29.70
2023-04-18T21:09:26.346Z,29.70
2023-04-18T21:10:26.385Z,29.70
2023-04-18T21:11:26.321Z,29.70
2023-04-18T21:12:26.319Z,29.70
2023-04-18T21:13:26.334Z,29.71
2023-04-18T21:14:26.618Z,29.70
2023-04-18T21:15:26.324Z,29.70
2023-04-18T21:16:26.333Z,29.70
2023-04-18T21:17:26.336Z,29.66
2023-04-18T21:18:26.325Z,29.71
2023-04-18T21:19:26.302Z,29.67
2023-04-18T21:20:26.320Z,29.70
2023-04-18T21:21:26.322Z,29.70
2023-04-18T21:22:26.300Z,29.64
2023-04-18T21:23:26.307Z,29.68
2023-04-18T21:24:26.320Z,29.68
2023-04-18T21:25:27.130Z,29.64
2023-04-18T21:26:26.308Z,29.68
2023-04-18T21:27:26.291Z,29.66
2023-04-18T21:28:26.294Z,29.67
2023-04-18T21:29:26.320Z,29.67
2023-04-18T21:30:26.669Z,29.66
2023-04-18T21:31:26.718Z,29.66
2023-04-18T21:32:26.424Z,29.67
2023-04-18T21:33:26.397Z,29.64
2023-04-18T21:34:26.408Z,29.64
2023-04-18T21:35:26.436Z,29.63
2023-04-18T21:36:26.526Z,29.63
2023-04-18T21:37:26.397Z,29.69
2023-04-18T21:38:26.436Z,29.65
2023-04-18T21:39:26.408Z,29.64
2023-04-18T21:40:26.392Z,29.66
2023-04-18T21:41:26.405Z,29.66
2023-04-18T21:42:26.378Z,29.68
2023-04-18T21:43:26.393Z,29.64
2023-04-18T21:44:26.371Z,29.64
2023-04-18T21:45:26.416Z,29.60
2023-04-18T21:46:26.585Z,29.64
2023-04-18T21:47:26.462Z,29.64
2023-04-18T21:48:26.375Z,29.64
2023-04-18T21:49:26.401Z,29.66
2023-04-18T21:50:26.401Z,29.64
2023-04-18T21:51:26.359Z,29.65
2023-04-18T21:52:26.371Z,29.64
2023-04-18T21:53:26.379Z,29.61
2023-04-18T21:54:26.423Z,29.59
2023-04-18T21:55:26.397Z,29.61
2023-04-18T21:56:26.404Z,29.64
2023-04-18T21:57:26.439Z,29.65
2023-04-18T21:58:26.423Z,29.68
2023-04-18T21:59:26.445Z,29.61
2023-04-18T22:00:26.419Z,29.62
2023-04-18T22:01:26.472Z,29.60
2023-04-18T22:02:26.561Z,29.60
2023-04-18T22:03:26.588Z,29.56
2023-04-18T22:04:26.768Z,29.64
2023-04-18T22:05:26.440Z,29.62
2023-04-18T22:06:26.500Z,29.59
2023-04-18T22:07:26.438Z,29.59
2023-04-18T22:08:26.454Z,29.55
2023-04-18T22:09:26.453Z,29.57
2023-04-18T22:10:26.421Z,29.63
2023-04-18T22:11:26.436Z,29.60
2023-04-18T22:12:26.531Z,29.59
2023-04-18T22:13:26.445Z,29.55
2023-04-18T22:14:26.462Z,29.61
2023-04-18T22:15:26.468Z,29.61
2023-04-18T22:16:26.452Z,29.56
2023-04-18T22:17:26.526Z,29.59
2023-04-18T22:18:26.452Z,29.61
2023-04-18T22:19:26.470Z,29.59
2023-04-18T22:20:26.456Z,29.56
2023-04-18T22:21:26.474Z,29.57
2023-04-18T22:22:26.466Z,29.56
2023-04-18T22:23:26.448Z,29.60
2023-04-18T22:24:26.501Z,29.57
2023-04-18T22:25:26.451Z,29.57
2023-04-18T22:26:26.433Z,29.53
2023-04-18T22:27:26.470Z,29.56
2023-04-18T22:28:26.454Z,29.53
2023-04-18T22:29:26.455Z,29.52
2023-04-18T22:30:26.456Z,29.55
2023-04-18T22:31:26.500Z,29.56
2023-04-18T22:32:26.531Z,29.53
2023-04-18T22:33:26.496Z,29.55
2023-04-18T22:34:26.477Z,29.56
2023-04-18T22:35:26.477Z,29.56
2023-04-18T22:36:26.490Z,29.50
2023-04-18T22:37:26.521Z,29.56
2023-04-18T22:38:26.464Z,29.56
2023-04-18T22:39:26.475Z,29.55
2023-04-18T22:40:26.496Z,29.55
2023-04-18T22:41:26.469Z,29.52
2023-04-18T22:42:26.494Z,29.52
2023-04-18T22:43:26.484Z,29.52
2023-04-18T22:44:26.514Z,29.55
2023-04-18T22:45:26.499Z,29.56
2023-04-18T22:46:26.540Z,29.56
2023-04-18T22:47:26.521Z,29.47
2023-04-18T22:48:26.461Z,29.49
2023-04-18T22:49:26.463Z,29.52
2023-04-18T22:50:26.520Z,29.47
2023-04-18T22:51:26.484Z,29.52
2023-04-18T22:52:26.521Z,29.50
2023-04-18T22:53:26.485Z,29.50
2023-04-18T22:54:26.490Z,29.47
2023-04-18T22:55:26.529Z,29.49
2023-04-18T22:56:26.513Z,29.47
2023-04-18T22:57:26.538Z,29.49
2023-04-18T22:58:26.507Z,29.49
2023-04-18T22:59:26.535Z,29.50
2023-04-18T23:00:26.511Z,29.48
2023-04-18T23:01:26.618Z,29.50
2023-04-18T23:02:26.646Z,29.55
2023-04-18T23:03:26.622Z,29.50
2023-04-18T23:04:26.695Z,29.48
2023-04-18T23:05:26.552Z,29.47
2023-04-18T23:06:26.550Z,29.52
2023-04-18T23:07:26.537Z,29.45
2023-04-18T23:08:26.625Z,29.50
2023-04-18T23:09:26.560Z,29.49
2023-04-18T23:10:26.585Z,29.52
2023-04-18T23:11:26.591Z,29.47
2023-04-18T23:12:26.559Z,29.50
2023-04-18T23:13:26.640Z,29.49